Trenton, KY

9:53 AM CST on February 07, 2016 (GMT -0600)
Cindy Jo Ct | | Change Station
CLOSE
Current Station
Personal Weather Station
Location: Clarksville, TN
Elevation: 522 ft
Nearby Weather Stations

Elev 522 ft 36.63 °N, 87.30 °W | Updated 6 minutes ago

Clear
Clear
46.6 °F
Feels Like 47 °F
N
2.7
Wind Variable Wind from NNE

Today
High -- | Low -- °F
--% Chance of Precip.
Yesterday
High -- | Low -- °F
Precip. -- in
Pressure 30.19 in
Visibility 10.0 miles
Clouds Clear
Windchill 47 °F
Dew Point 28 °F
Humidity 49%
Rainfall 0.00 in
Snow Depth Not available.
6:46 AM 5:20 PM
Waning Crescent, 1% visible
METAR KHOP 071458Z AUTO 20008KT 10SM CLR 05/M04 A3017 RMK AO2 SLP221 T00541041 58008
Pressure 30.19 in
Visibility 10.0 miles
Clouds Clear
Windchill 47 °F
Dew Point 28 °F
Humidity 49%
Rainfall 0.00 in
Snow Depth Not available.
6:46 AM 5:20 PM
Waning Crescent, 1% visible
METAR KHOP 071458Z AUTO 20008KT 10SM CLR 05/M04 A3017 RMK AO2 SLP221 T00541041 58008

10-Day Weather Forecast

Almanac

Astronomy

Feb. 07, 2016 Rise Set
Actual Time
Civil Twilight
Nautical Twilight
Astronomical Twilight
Moon
Length of Visible Light
Length of Day
Tomorrow will be .
, % of the Moon is Illuminated

Today's Extremes

State Highs State Lows

Community

WunderPhotos

Upload Photos

1,891,216 photos uploaded!

WunderBlog® & News

Nearby

Air Quality

  Air Quality AQ Index Pollutant
Not available.

Snow Depth

Station Depth Elevation

Earthquake Activity

City Distance Mag. Time & Date
Minimum magnitude displayed is 2.5.

Coastal Water Temperatures

Place Temperature

Stations

Nearby Weather Stations

Station Location Temp. Windchill Dew Point Humidity Wind Precip. Elev Updated Type
                   

Watches & Warnings

There are currently no watches in effect.